createdAt,value
2022-09-30T00:01:56.331Z,20.40
2022-09-30T00:04:26.130Z,21.10
2022-09-30T00:06:55.224Z,21.73
2022-09-30T00:09:23.479Z,19.50
2022-09-30T00:11:51.821Z,19.17
2022-09-30T00:14:24.577Z,21.57
2022-09-30T00:16:52.538Z,20.77
2022-09-30T00:19:20.538Z,21.17
2022-09-30T00:21:48.493Z,20.97
2022-09-30T00:24:16.345Z,23.07
2022-09-30T00:26:44.002Z,19.60
2022-09-30T00:29:12.458Z,19.97
2022-09-30T00:31:40.362Z,19.27
2022-09-30T00:34:08.725Z,18.23
2022-09-30T00:36:55.737Z,19.83
2022-09-30T00:39:29.829Z,20.73
2022-09-30T00:42:07.611Z,20.97
2022-09-30T00:45:06.882Z,19.50
2022-09-30T00:48:22.128Z,19.20
2022-09-30T00:50:55.897Z,19.03
2022-09-30T00:53:56.108Z,19.70
2022-09-30T00:56:37.524Z,20.53
2022-09-30T00:59:27.832Z,22.67
2022-09-30T01:01:56.277Z,22.63
2022-09-30T01:04:29.745Z,19.60
2022-09-30T01:07:08.524Z,19.10
2022-09-30T01:09:41.667Z,19.53
2022-09-30T01:12:25.451Z,19.50
2022-09-30T01:14:58.057Z,20.90
2022-09-30T01:18:24.065Z,19.93
2022-09-30T01:21:58.549Z,21.43
2022-09-30T01:25:10.132Z,20.37
2022-09-30T01:28:40.679Z,19.63
2022-09-30T01:32:08.048Z,19.00
2022-09-30T01:35:25.392Z,20.10
2022-09-30T01:38:53.580Z,19.10
2022-09-30T01:41:50.220Z,18.93
2022-09-30T01:44:53.647Z,19.33
2022-09-30T01:48:00.522Z,19.87
2022-09-30T01:50:44.966Z,19.60
2022-09-30T01:53:48.914Z,20.37
2022-09-30T01:56:47.933Z,19.17
2022-09-30T02:00:08.303Z,20.90
2022-09-30T02:03:20.111Z,21.23
2022-09-30T02:06:18.577Z,19.23
2022-09-30T02:09:39.108Z,22.60
2022-09-30T02:12:19.955Z,21.63
2022-09-30T02:15:20.795Z,19.87
2022-09-30T02:18:04.626Z,20.30
2022-09-30T02:20:43.945Z,19.67
2022-09-30T02:23:36.719Z,20.70
2022-09-30T02:26:29.948Z,22.30
2022-09-30T02:29:23.832Z,21.23
2022-09-30T02:32:04.110Z,20.83
2022-09-30T02:35:20.060Z,19.97
2022-09-30T02:38:23.161Z,20.53
2022-09-30T02:41:08.041Z,20.70
2022-09-30T02:43:36.764Z,21.57
2022-09-30T02:46:48.866Z,23.40
2022-09-30T02:49:39.347Z,21.03
2022-09-30T02:52:53.005Z,21.50
2022-09-30T02:56:07.985Z,22.00
2022-09-30T02:58:39.809Z,22.00
2022-09-30T03:01:16.402Z,22.07
2022-09-30T03:04:07.366Z,22.20
2022-09-30T03:06:37.739Z,21.87
2022-09-30T03:09:06.672Z,21.57
2022-09-30T03:11:37.426Z,20.97
2022-09-30T03:14:47.459Z,19.83
2022-09-30T03:18:16.463Z,21.80
2022-09-30T03:20:59.282Z,20.97
2022-09-30T03:24:22.580Z,23.20
2022-09-30T03:28:19.150Z,21.27
2022-09-30T03:31:21.560Z,22.07
2022-09-30T03:34:38.106Z,21.27
2022-09-30T03:37:46.825Z,20.80
2022-09-30T03:40:39.018Z,19.83
2022-09-30T03:44:02.284Z,21.37
2022-09-30T03:47:00.231Z,21.80
2022-09-30T03:49:40.083Z,20.30
2022-09-30T03:52:14.417Z,20.53
2022-09-30T03:54:59.196Z,19.47
2022-09-30T03:57:31.132Z,21.50
2022-09-30T04:00:00.279Z,20.03
2022-09-30T04:02:29.460Z,22.37
2022-09-30T04:04:57.128Z,21.37
2022-09-30T04:07:25.195Z,20.30
2022-09-30T04:09:53.122Z,22.43
2022-09-30T04:12:20.727Z,22.10
2022-09-30T04:14:48.701Z,22.80
2022-09-30T04:17:16.846Z,20.50
2022-09-30T04:19:45.087Z,22.03
2022-09-30T04:22:13.205Z,20.60
2022-09-30T04:24:41.100Z,20.53
2022-09-30T04:27:08.675Z,21.73
2022-09-30T04:29:36.868Z,22.47
2022-09-30T04:32:04.832Z,21.60
2022-09-30T04:34:33.076Z,21.17
2022-09-30T04:37:00.702Z,21.80
2022-09-30T04:39:28.274Z,19.97
2022-09-30T04:41:55.815Z,21.30
2022-09-30T04:44:23.517Z,20.20
2022-09-30T04:46:51.365Z,21.07
2022-09-30T04:49:19.260Z,22.77
2022-09-30T04:51:48.727Z,21.20
2022-09-30T04:54:18.278Z,21.00
2022-09-30T04:56:46.939Z,19.03
2022-09-30T04:59:15.053Z,19.67
2022-09-30T05:01:44.650Z,22.20
2022-09-30T05:04:12.575Z,23.43
2022-09-30T05:06:41.073Z,22.17
2022-09-30T05:09:08.888Z,20.20
2022-09-30T05:11:38.251Z,20.70
2022-09-30T05:14:09.871Z,19.70
2022-09-30T05:16:37.802Z,20.80
2022-09-30T05:19:06.517Z,20.47
2022-09-30T05:21:34.234Z,20.97
2022-09-30T05:24:03.649Z,21.80
2022-09-30T05:26:31.298Z,22.67
2022-09-30T05:28:58.923Z,23.57
2022-09-30T05:31:27.260Z,23.27
2022-09-30T05:33:58.012Z,21.50
2022-09-30T05:36:26.064Z,22.10
2022-09-30T05:38:55.094Z,23.70
2022-09-30T05:41:24.507Z,21.93
2022-09-30T05:43:52.283Z,24.60
2022-09-30T05:46:21.236Z,25.60
2022-09-30T05:48:49.027Z,23.93
2022-09-30T05:51:16.658Z,22.87
2022-09-30T05:53:44.923Z,22.03
2022-09-30T05:56:13.550Z,20.93
2022-09-30T05:58:42.294Z,22.23
2022-09-30T06:01:15.457Z,22.50
2022-09-30T06:03:45.600Z,22.23
2022-09-30T06:06:15.991Z,23.80
2022-09-30T06:08:44.688Z,22.07
2022-09-30T06:11:21.798Z,23.13
2022-09-30T06:13:50.040Z,22.63
2022-09-30T06:16:19.909Z,22.27
2022-09-30T06:18:47.873Z,22.90
2022-09-30T06:21:18.220Z,26.60
2022-09-30T06:23:46.761Z,23.30
2022-09-30T06:26:15.020Z,23.07
2022-09-30T06:28:45.157Z,24.17
2022-09-30T06:31:13.271Z,23.73
2022-09-30T06:33:42.603Z,24.77
2022-09-30T06:36:10.572Z,24.63
2022-09-30T06:38:40.110Z,26.10
2022-09-30T06:41:08.831Z,24.70
2022-09-30T06:43:52.283Z,24.47
2022-09-30T06:46:30.718Z,24.53
2022-09-30T06:49:11.945Z,28.83
2022-09-30T06:51:41.073Z,30.53
2022-09-30T06:54:09.334Z,31.37
2022-09-30T06:56:37.605Z,26.07
2022-09-30T06:59:05.320Z,22.00
2022-09-30T07:01:33.082Z,20.47
2022-09-30T07:04:08.059Z,15.13
2022-09-30T07:06:35.880Z,15.43
2022-09-30T07:09:03.904Z,14.00
2022-09-30T07:11:31.964Z,11.90
2022-09-30T07:13:59.605Z,11.53
2022-09-30T07:16:27.447Z,11.00
2022-09-30T07:18:55.135Z,9.87
2022-09-30T07:21:22.897Z,9.03
2022-09-30T07:23:52.891Z,8.50
2022-09-30T07:26:24.441Z,8.40
2022-09-30T07:28:53.684Z,8.33
2022-09-30T07:31:33.021Z,9.60
2022-09-30T07:34:09.134Z,8.40
2022-09-30T07:36:41.375Z,8.67
2022-09-30T07:39:11.571Z,8.90
2022-09-30T07:41:41.335Z,9.80
2022-09-30T07:44:15.188Z,8.40
2022-09-30T07:46:45.458Z,9.87
2022-09-30T07:49:25.661Z,9.53
2022-09-30T07:51:59.613Z,9.50
2022-09-30T07:54:37.358Z,9.90
2022-09-30T07:57:10.840Z,11.57
2022-09-30T07:59:42.657Z,11.00
2022-09-30T08:02:19.830Z,11.60
2022-09-30T08:04:47.853Z,11.27
2022-09-30T08:07:18.398Z,12.47
2022-09-30T08:09:46.196Z,12.53
2022-09-30T08:12:13.800Z,11.80
2022-09-30T08:14:41.744Z,15.77
2022-09-30T08:17:09.724Z,14.87
2022-09-30T08:19:38.310Z,15.10
2022-09-30T08:22:06.637Z,14.93
2022-09-30T08:24:34.545Z,15.00
2022-09-30T08:27:02.234Z,14.17
2022-09-30T08:29:53.236Z,15.03
2022-09-30T08:32:17.850Z,13.10
2022-09-30T08:34:45.733Z,16.00
2022-09-30T08:37:13.337Z,13.60
2022-09-30T08:39:42.506Z,12.90
2022-09-30T08:42:57.452Z,12.70
2022-09-30T08:46:02.941Z,13.60
2022-09-30T08:49:23.230Z,14.30
2022-09-30T08:51:54.092Z,14.67
2022-09-30T08:54:32.988Z,14.57
2022-09-30T08:57:06.716Z,15.43
2022-09-30T08:59:57.879Z,15.70
2022-09-30T09:02:43.868Z,13.47
2022-09-30T09:05:35.154Z,15.63
2022-09-30T09:08:50.353Z,16.30
2022-09-30T09:12:10.436Z,17.10
2022-09-30T09:15:21.281Z,16.67
2022-09-30T09:18:34.653Z,16.20
2022-09-30T09:21:51.649Z,17.20
2022-09-30T09:24:40.390Z,19.07
2022-09-30T09:27:41.488Z,18.40
2022-09-30T09:30:25.931Z,20.17
2022-09-30T09:33:11.693Z,16.63
2022-09-30T09:36:38.103Z,16.90
2022-09-30T09:40:03.773Z,18.80
2022-09-30T09:43:12.338Z,14.77
2022-09-30T09:46:22.249Z,14.10
2022-09-30T09:49:21.031Z,16.00
2022-09-30T09:53:11.184Z,14.10
2022-09-30T09:55:39.444Z,13.67
2022-09-30T09:58:19.948Z,17.17
2022-09-30T10:00:48.001Z,14.50
2022-09-30T10:03:28.143Z,15.27
2022-09-30T10:06:13.173Z,14.80
2022-09-30T10:08:57.012Z,17.20
2022-09-30T10:11:29.399Z,15.17
2022-09-30T10:14:01.894Z,17.33
2022-09-30T10:16:36.598Z,18.50
2022-09-30T10:19:29.030Z,13.80
2022-09-30T10:22:08.762Z,14.17
2022-09-30T10:24:41.289Z,13.57
2022-09-30T10:27:35.026Z,12.77
2022-09-30T10:30:03.954Z,14.20
2022-09-30T10:32:32.992Z,12.30
2022-09-30T10:35:23.512Z,12.30
2022-09-30T10:37:55.006Z,12.83
2022-09-30T10:40:30.896Z,11.10
2022-09-30T10:42:59.182Z,12.73
2022-09-30T10:45:39.036Z,10.70
2022-09-30T10:48:22.722Z,12.23
2022-09-30T10:50:57.109Z,13.47
2022-09-30T10:53:34.477Z,13.10
2022-09-30T10:56:05.531Z,11.47
2022-09-30T10:58:56.540Z,10.20
2022-09-30T11:02:05.921Z,11.47
2022-09-30T11:05:18.334Z,13.30
2022-09-30T11:08:26.861Z,11.10
2022-09-30T11:11:12.326Z,11.23
2022-09-30T11:14:18.884Z,12.67
2022-09-30T11:17:18.094Z,12.20
2022-09-30T11:20:19.486Z,12.40
2022-09-30T11:23:19.094Z,10.20
2022-09-30T11:26:41.796Z,10.47
2022-09-30T11:30:09.861Z,9.93
2022-09-30T11:33:04.445Z,8.27
2022-09-30T11:35:46.550Z,8.27
2022-09-30T11:38:46.382Z,9.43
2022-09-30T11:41:37.611Z,10.17
2022-09-30T11:44:38.573Z,8.90
2022-09-30T11:48:49.371Z,8.50
2022-09-30T11:52:35.051Z,8.10
2022-09-30T11:56:10.131Z,7.00
2022-09-30T11:58:59.035Z,7.43
2022-09-30T12:01:45.844Z,6.73
2022-09-30T12:04:31.582Z,7.70
2022-09-30T12:07:20.332Z,7.17
2022-09-30T12:10:08.430Z,5.47
2022-09-30T12:12:36.967Z,5.03
2022-09-30T12:15:08.048Z,5.87
2022-09-30T12:17:54.978Z,5.47
2022-09-30T12:21:00.789Z,5.30
2022-09-30T12:23:53.334Z,5.70
2022-09-30T12:26:21.293Z,5.60
2022-09-30T12:29:58.557Z,5.33
2022-09-30T12:33:13.430Z,4.87
2022-09-30T12:36:24.801Z,5.20
2022-09-30T12:39:07.814Z,6.10
2022-09-30T12:43:14.287Z,5.10
2022-09-30T12:46:27.469Z,6.27
2022-09-30T12:49:15.172Z,6.23
2022-09-30T12:51:49.838Z,5.67
2022-09-30T12:54:36.907Z,5.40
2022-09-30T12:57:09.948Z,6.00
2022-09-30T13:00:01.804Z,5.33
2022-09-30T13:02:48.131Z,6.20
2022-09-30T13:05:30.923Z,6.00
2022-09-30T13:08:04.888Z,6.60
2022-09-30T13:10:38.666Z,6.43
2022-09-30T13:13:29.304Z,6.20
2022-09-30T13:16:06.756Z,6.50
2022-09-30T13:18:34.457Z,5.70
2022-09-30T13:21:19.435Z,5.63
2022-09-30T13:23:54.924Z,5.50
2022-09-30T13:26:44.748Z,4.80
2022-09-30T13:29:16.402Z,5.40
2022-09-30T13:31:49.849Z,4.70
2022-09-30T13:34:31.295Z,4.80
2022-09-30T13:37:06.037Z,4.80
2022-09-30T13:39:56.998Z,5.53
2022-09-30T13:42:34.655Z,4.73
2022-09-30T13:45:18.668Z,5.50
2022-09-30T13:48:02.517Z,4.60
2022-09-30T13:50:42.608Z,5.20
2022-09-30T13:53:26.108Z,5.50
2022-09-30T13:55:59.304Z,4.90
2022-09-30T14:00:02.779Z,4.80
2022-09-30T14:03:38.913Z,4.30
2022-09-30T14:07:45.277Z,3.70
2022-09-30T14:10:58.859Z,3.53
2022-09-30T14:14:24.948Z,4.40
2022-09-30T14:17:38.328Z,4.63
2022-09-30T14:20:50.686Z,4.63
2022-09-30T14:23:20.624Z,4.70
2022-09-30T14:26:48.756Z,6.33
2022-09-30T14:30:11.440Z,4.30
2022-09-30T14:32:50.578Z,4.10
2022-09-30T14:35:31.325Z,4.20
2022-09-30T14:38:34.124Z,4.10
2022-09-30T14:41:14.391Z,4.43
2022-09-30T14:43:46.927Z,4.67
2022-09-30T14:46:43.424Z,5.23
2022-09-30T14:49:34.188Z,4.90
2022-09-30T14:52:04.260Z,5.07
2022-09-30T14:54:34.548Z,5.10
2022-09-30T14:57:16.688Z,4.40
2022-09-30T14:59:44.432Z,4.70
2022-09-30T15:02:20.646Z,4.80
2022-09-30T15:05:00.938Z,4.47
2022-09-30T15:07:29.687Z,4.60
2022-09-30T15:10:03.299Z,5.00
2022-09-30T15:12:37.919Z,4.70
2022-09-30T15:15:37.516Z,4.90
2022-09-30T15:18:33.858Z,4.50
2022-09-30T15:21:16.674Z,4.30
2022-09-30T15:23:55.642Z,4.50
2022-09-30T15:26:27.957Z,4.43
2022-09-30T15:28:56.075Z,4.70
2022-09-30T15:31:32.622Z,4.83
2022-09-30T15:34:25.764Z,3.90
2022-09-30T15:37:11.803Z,4.10
2022-09-30T15:40:08.315Z,5.13
2022-09-30T15:42:50.944Z,4.30
2022-09-30T15:45:35.523Z,5.00
2022-09-30T15:48:23.768Z,3.87
2022-09-30T15:51:01.037Z,3.93
2022-09-30T15:53:48.598Z,3.87
2022-09-30T15:56:20.122Z,4.27
2022-09-30T15:59:07.915Z,4.53
2022-09-30T16:01:52.647Z,3.50
2022-09-30T16:04:22.988Z,4.30
2022-09-30T16:07:08.698Z,3.80
2022-09-30T16:09:42.421Z,3.13
2022-09-30T16:12:13.134Z,3.80
2022-09-30T16:15:15.678Z,3.57
2022-09-30T16:17:50.806Z,3.33
2022-09-30T16:20:19.068Z,3.70
2022-09-30T16:22:46.551Z,3.67
2022-09-30T16:25:33.918Z,2.97
2022-09-30T16:28:15.059Z,2.80
2022-09-30T16:30:54.360Z,4.07
2022-09-30T16:33:22.150Z,2.93
2022-09-30T16:35:49.828Z,3.03
2022-09-30T16:38:18.944Z,2.40
2022-09-30T16:40:46.483Z,2.10
2022-09-30T16:43:14.630Z,2.73
2022-09-30T16:45:42.640Z,1.93
2022-09-30T16:48:19.428Z,1.90
2022-09-30T16:51:17.201Z,2.27
2022-09-30T16:53:48.157Z,1.80
2022-09-30T16:56:20.117Z,2.43
2022-09-30T16:58:48.210Z,2.10
2022-09-30T17:01:26.780Z,2.60
2022-09-30T17:03:58.535Z,2.53
2022-09-30T17:06:33.211Z,3.47
2022-09-30T17:09:02.181Z,2.60
2022-09-30T17:11:34.515Z,3.43
2022-09-30T17:14:05.561Z,5.00
2022-09-30T17:16:34.579Z,8.93
2022-09-30T17:19:02.572Z,7.10
2022-09-30T17:21:30.300Z,5.70
2022-09-30T17:23:59.062Z,4.63
2022-09-30T17:26:26.762Z,3.80
2022-09-30T17:28:57.661Z,4.93
2022-09-30T17:31:36.571Z,4.30
2022-09-30T17:34:09.686Z,2.90
2022-09-30T17:36:37.420Z,3.10
2022-09-30T17:39:07.651Z,2.67
2022-09-30T17:41:56.745Z,2.87
2022-09-30T17:44:25.477Z,3.10
2022-09-30T17:47:01.992Z,4.23
2022-09-30T17:49:38.150Z,2.63
2022-09-30T17:52:06.141Z,2.90
2022-09-30T17:54:34.550Z,3.33
2022-09-30T17:57:02.869Z,3.37
2022-09-30T17:59:30.559Z,4.83
2022-09-30T18:01:58.278Z,3.47
2022-09-30T18:04:26.594Z,3.37
2022-09-30T18:06:56.050Z,4.10
2022-09-30T18:09:24.296Z,3.63
2022-09-30T18:11:53.460Z,3.47
2022-09-30T18:14:21.063Z,3.67
2022-09-30T18:16:48.730Z,3.40
2022-09-30T18:19:16.927Z,4.07
2022-09-30T18:21:44.839Z,4.27
2022-09-30T18:24:12.846Z,4.77
2022-09-30T18:26:40.629Z,4.07
2022-09-30T18:29:08.415Z,4.73
2022-09-30T18:31:37.654Z,3.97
2022-09-30T18:34:07.178Z,4.50
2022-09-30T18:36:35.442Z,3.50
2022-09-30T18:39:03.590Z,4.33
2022-09-30T18:41:34.546Z,4.10
2022-09-30T18:44:03.370Z,4.73
2022-09-30T18:46:32.177Z,4.57
2022-09-30T18:49:00.070Z,4.70
2022-09-30T18:51:28.773Z,4.07
2022-09-30T18:54:01.219Z,4.17
2022-09-30T18:56:33.097Z,3.57
2022-09-30T18:59:05.264Z,3.97
2022-09-30T19:01:34.417Z,3.80
2022-09-30T19:04:05.954Z,4.10
2022-09-30T19:06:34.919Z,4.10
2022-09-30T19:09:03.522Z,3.63
2022-09-30T19:11:31.554Z,4.23
2022-09-30T19:14:02.590Z,3.73
2022-09-30T19:16:36.656Z,3.27
2022-09-30T19:19:12.289Z,3.30
2022-09-30T19:21:40.506Z,4.80
2022-09-30T19:24:09.987Z,4.60
2022-09-30T19:26:39.628Z,3.70
2022-09-30T19:29:09.688Z,2.97
2022-09-30T19:31:38.275Z,3.27
2022-09-30T19:34:06.403Z,3.37
2022-09-30T19:36:46.479Z,3.43
2022-09-30T19:39:18.507Z,2.73
2022-09-30T19:41:47.303Z,3.00
2022-09-30T19:44:20.040Z,3.33
2022-09-30T19:46:52.055Z,2.90
2022-09-30T19:49:21.731Z,2.80
2022-09-30T19:51:53.236Z,2.70
2022-09-30T19:54:34.837Z,2.83
2022-09-30T19:57:05.870Z,2.90
2022-09-30T19:59:34.076Z,2.70
2022-09-30T20:02:01.841Z,2.73
2022-09-30T20:04:30.181Z,3.00
2022-09-30T20:06:57.776Z,2.40
2022-09-30T20:09:25.548Z,2.70
2022-09-30T20:11:53.312Z,2.40
2022-09-30T20:14:39.363Z,2.77
2022-09-30T20:17:07.080Z,2.37
2022-09-30T20:19:34.600Z,2.60
2022-09-30T20:22:02.227Z,3.33
2022-09-30T20:24:29.869Z,3.27
2022-09-30T20:26:58.087Z,3.20
2022-09-30T20:29:27.211Z,3.70
2022-09-30T20:31:55.031Z,2.90
2022-09-30T20:34:22.792Z,3.10
2022-09-30T20:36:50.438Z,3.07
2022-09-30T20:39:18.810Z,3.40
2022-09-30T20:41:46.960Z,3.13
2022-09-30T20:44:17.794Z,2.87
2022-09-30T20:46:46.305Z,3.27
2022-09-30T20:49:14.590Z,3.30
2022-09-30T20:51:42.264Z,3.33
2022-09-30T20:54:10.465Z,3.70
2022-09-30T20:57:02.738Z,4.07
2022-09-30T20:59:25.872Z,3.70
2022-09-30T21:01:53.566Z,3.10
2022-09-30T21:04:21.434Z,3.00
2022-09-30T21:06:49.016Z,3.20
2022-09-30T21:09:17.117Z,3.00
2022-09-30T21:11:44.927Z,3.20
2022-09-30T21:14:12.475Z,3.30
2022-09-30T21:16:40.211Z,3.30
2022-09-30T21:19:07.887Z,3.27
2022-09-30T21:21:35.838Z,3.17
2022-09-30T21:24:04.017Z,3.07
2022-09-30T21:26:31.715Z,3.20
2022-09-30T21:29:00.150Z,3.80
2022-09-30T21:31:29.136Z,3.53
2022-09-30T21:34:00.027Z,3.00
2022-09-30T21:36:32.697Z,3.23
2022-09-30T21:39:11.130Z,4.13
2022-09-30T21:41:40.766Z,3.07
2022-09-30T21:44:08.656Z,3.20
2022-09-30T21:46:36.631Z,3.30
2022-09-30T21:49:15.686Z,3.27
2022-09-30T21:51:43.753Z,3.13
2022-09-30T21:54:14.052Z,3.43
2022-09-30T21:56:44.294Z,2.80
2022-09-30T21:59:16.604Z,2.93
2022-09-30T22:01:46.392Z,3.10
2022-09-30T22:04:14.265Z,3.83
2022-09-30T22:06:41.870Z,4.23
2022-09-30T22:09:10.315Z,3.80
2022-09-30T22:11:37.999Z,3.37
2022-09-30T22:14:06.424Z,3.20
2022-09-30T22:16:35.352Z,3.30
2022-09-30T22:19:07.443Z,3.30
2022-09-30T22:21:38.317Z,3.17
2022-09-30T22:24:09.448Z,2.93
2022-09-30T22:26:38.020Z,3.83
2022-09-30T22:29:12.497Z,3.53
2022-09-30T22:31:41.161Z,4.30
2022-09-30T22:34:33.065Z,3.60
2022-09-30T22:37:19.215Z,3.53
2022-09-30T22:39:47.161Z,4.10
2022-09-30T22:42:14.841Z,5.00
2022-09-30T22:44:42.617Z,4.70
2022-09-30T22:47:11.590Z,4.10
2022-09-30T22:49:39.194Z,3.90
2022-09-30T22:52:08.626Z,4.10
2022-09-30T22:54:37.570Z,4.47
2022-09-30T22:57:07.973Z,4.67
2022-09-30T22:59:38.642Z,4.40
2022-09-30T23:02:06.700Z,3.97
2022-09-30T23:04:36.245Z,3.93
2022-09-30T23:07:08.255Z,4.77
2022-09-30T23:09:36.422Z,4.80
2022-09-30T23:12:04.289Z,4.40
2022-09-30T23:14:31.874Z,4.10
2022-09-30T23:16:59.412Z,4.60
2022-09-30T23:19:27.050Z,3.93
2022-09-30T23:21:54.751Z,5.17
2022-09-30T23:24:22.571Z,6.13
2022-09-30T23:26:50.546Z,4.90
2022-09-30T23:29:18.276Z,4.90
2022-09-30T23:31:45.975Z,4.70
2022-09-30T23:34:14.247Z,4.33
2022-09-30T23:36:42.633Z,4.43
2022-09-30T23:39:19.589Z,4.20
2022-09-30T23:41:50.163Z,5.03
2022-09-30T23:44:18.962Z,4.13
2022-09-30T23:47:07.370Z,4.60
2022-09-30T23:49:36.110Z,4.53
2022-09-30T23:52:12.969Z,5.63
2022-09-30T23:54:42.778Z,4.33
2022-09-30T23:57:11.766Z,4.30
2022-09-30T23:59:40.185Z,4.23
